Time;durP1;ratioP1;P1;durP2;ratioP2;P2;SDS_P1;SDS_P2;PMS_P1;PMS_P2;Temp;Humidity;BMP_temperature;BMP_pressure;BME280_temperature;BME280_humidity;BME280_pressure;Samples;Min_cycle;Max_cycle;Signal;HPM_P1;HPM_P2
2022/11/18 00:01:21;;;;;;;17.52;8.52;;;7.20;99.90;;;;;;5092037;28;20127;-74
2022/11/18 00:03:48;;;;;;;21.88;7.82;;;7.30;99.90;;;;;;5098524;28;20039;-75
2022/11/18 00:06:16;;;;;;;19.45;8.85;;;7.20;99.90;;;;;;5095891;28;20127;-74
2022/11/18 00:08:42;;;;;;;20.88;8.98;;;7.30;99.90;;;;;;5089411;28;20119;-73
2022/11/18 00:14:17;;;;;;;17.60;8.88;;;7.30;99.90;;;;;;5090153;28;20048;-73
2022/11/18 00:14:18;;;;;;;21.85;9.10;;;7.30;99.90;;;;;;5089128;28;20044;-74
2022/11/18 00:16:46;;;;;;;20.85;9.35;;;7.30;99.90;;;;;;5089654;28;20044;-75
2022/11/18 00:19:12;;;;;;;22.73;9.88;;;7.30;99.90;;;;;;5090361;28;20048;-74
2022/11/18 00:21:37;;;;;;;20.77;9.25;;;7.30;99.90;;;;;;5071922;28;20059;-74
2022/11/18 00:24:03;;;;;;;21.05;9.45;;;7.40;99.90;;;;;;5091728;28;20051;-73
2022/11/18 00:26:29;;;;;;;19.77;8.95;;;7.30;99.90;;;;;;5099143;28;20044;-74
2022/11/18 00:28:54;;;;;;;18.50;9.65;;;7.30;99.90;;;;;;5089781;28;20075;-73
2022/11/18 00:31:20;;;;;;;22.27;9.43;;;7.30;99.90;;;;;;5090575;28;20047;-72
2022/11/18 00:33:46;;;;;;;21.67;10.38;;;7.30;99.90;;;;;;5077613;28;20052;-75
2022/11/18 00:36:12;;;;;;;20.95;9.23;;;7.40;99.90;;;;;;5089745;28;20051;-74
2022/11/18 00:38:38;;;;;;;;;;;7.30;99.90;;;;;;5080791;28;20039;-73
2022/11/18 00:41:14;;;;;;;22.15;9.82;;;7.30;99.90;;;;;;5098429;28;19973;-73
2022/11/18 00:43:41;;;;;;;24.08;10.52;;;7.40;99.90;;;;;;5110705;28;20061;-74
2022/11/18 00:46:09;;;;;;;21.30;9.52;;;7.40;99.90;;;;;;5087377;28;20109;-73
2022/11/18 00:48:35;;;;;;;21.88;9.88;;;7.40;99.90;;;;;;5098377;28;20040;-73
2022/11/18 00:51:12;;;;;;;28.55;10.60;;;7.40;99.90;;;;;;5088220;28;20051;-72
2022/11/18 00:53:38;;;;;;;23.33;10.48;;;7.30;99.90;;;;;;5099524;28;20046;-73
2022/11/18 00:56:04;;;;;;;25.88;9.93;;;7.30;99.90;;;;;;5092986;28;20089;-73
2022/11/18 00:58:30;;;;;;;26.30;10.85;;;7.40;99.90;;;;;;5082808;28;20047;-72
2022/11/18 01:00:56;;;;;;;24.02;10.80;;;7.30;99.90;;;;;;5090737;28;20218;-73
2022/11/18 01:03:23;;;;;;;;;;;7.40;99.90;;;;;;5105821;28;20559;-74
2022/11/18 01:05:49;;;;;;;25.60;10.70;;;7.40;99.90;;;;;;5089486;28;19942;-74
2022/11/18 01:08:14;;;;;;;26.27;12.10;;;7.30;99.90;;;;;;5088318;28;20367;-73
2022/11/18 01:10:40;;;;;;;27.45;11.68;;;7.30;99.90;;;;;;5072589;28;20416;-72
2022/11/18 01:13:19;;;;;;;25.63;11.23;;;7.30;99.90;;;;;;5072195;28;20055;-73
2022/11/18 01:15:52;;;;;;;25.85;10.77;;;7.30;99.90;;;;;;5093235;28;20051;-73
2022/11/18 01:18:21;;;;;;;28.10;11.00;;;7.30;99.90;;;;;;5089088;28;20044;-72
2022/11/18 01:20:47;;;;;;;26.77;11.90;;;7.30;99.90;;;;;;5090240;28;20103;-73
2022/11/18 01:23:14;;;;;;;29.75;11.45;;;7.40;99.90;;;;;;5090365;28;20309;-72
2022/11/18 01:25:42;;;;;;;23.20;10.43;;;7.40;99.90;;;;;;5102475;28;20523;-73
2022/11/18 01:28:08;;;;;;;27.60;10.98;;;7.30;99.90;;;;;;5092039;28;20112;-73
2022/11/18 01:30:35;;;;;;;26.17;11.75;;;7.40;99.90;;;;;;5058880;28;20055;-73
2022/11/18 01:33:03;;;;;;;26.45;11.70;;;7.40;99.90;;;;;;5095781;27;20485;-73
2022/11/18 01:35:39;;;;;;;27.70;12.95;;;7.40;99.90;;;;;;5101929;28;20059;-73
2022/11/18 01:38:05;;;;;;;34.33;12.00;;;7.40;99.90;;;;;;5090885;28;20535;-74
2022/11/18 01:40:32;;;;;;;27.23;10.93;;;7.40;99.90;;;;;;5087747;28;20079;-73
2022/11/18 01:42:58;;;;;;;27.60;11.40;;;7.40;99.90;;;;;;5074978;28;20075;-73
2022/11/18 01:45:38;;;;;;;25.02;10.68;;;7.40;99.90;;;;;;5092153;27;20052;-73
2022/11/18 01:48:19;;;;;;;31.23;12.50;;;7.40;99.90;;;;;;5092903;28;20044;-73
2022/11/18 01:50:50;;;;;;;29.75;11.40;;;7.40;99.90;;;;;;5091450;28;20044;-73
2022/11/18 01:53:22;;;;;;;22.60;10.52;;;7.40;99.90;;;;;;5081326;28;20079;-73
2022/11/18 01:55:51;;;;;;;26.23;11.23;;;7.40;99.90;;;;;;5102190;28;20123;-73
2022/11/18 01:58:25;;;;;;;29.65;11.85;;;7.40;99.90;;;;;;5091667;28;20047;-74
2022/11/18 02:00:52;;;;;;;29.83;11.35;;;7.40;99.90;;;;;;5108979;28;20126;-72
2022/11/18 02:03:19;;;;;;;22.30;10.40;;;7.30;99.90;;;;;;5106136;28;20047;-74
2022/11/18 02:05:48;;;;;;;27.30;10.63;;;7.40;99.90;;;;;;5094678;28;20476;-72
2022/11/18 02:08:16;;;;;;;25.17;11.75;;;7.40;99.90;;;;;;5110895;28;20097;-73
2022/11/18 02:10:42;;;;;;;22.60;10.23;;;7.40;99.90;;;;;;5112715;28;20051;-73
2022/11/18 02:13:08;;;;;;;23.55;10.20;;;7.40;99.90;;;;;;5103610;28;20507;-72
2022/11/18 02:15:47;;;;;;;19.58;9.25;;;7.40;99.90;;;;;;5082339;28;20055;-73
2022/11/18 02:18:31;;;;;;;24.80;10.43;;;7.40;99.90;;;;;;5091411;28;20126;-72
2022/11/18 02:21:25;;;;;;;23.35;10.18;;;7.40;99.90;;;;;;5090786;28;20051;-75
2022/11/18 02:24:15;;;;;;;26.48;10.35;;;7.40;99.90;;;;;;5076524;28;20059;-73
2022/11/18 02:27:08;;;;;;;23.80;10.40;;;7.40;99.90;;;;;;5094807;28;20431;-72
2022/11/18 02:29:39;;;;;;;23.98;10.18;;;7.40;99.90;;;;;;5112190;28;20135;-72
2022/11/18 02:32:17;;;;;;;21.85;10.20;;;7.40;99.90;;;;;;5095973;28;20047;-73
2022/11/18 02:34:57;;;;;;;21.95;9.48;;;7.40;99.90;;;;;;5090587;28;20048;-72
2022/11/18 02:37:37;;;;;;;28.73;11.07;;;7.40;99.90;;;;;;5090707;28;20039;-72
2022/11/18 02:40:27;;;;;;;22.52;9.70;;;7.40;99.90;;;;;;5118174;28;20047;-73
2022/11/18 02:43:00;;;;;;;25.42;10.27;;;7.30;99.90;;;;;;5106394;28;20051;-73
2022/11/18 02:45:29;;;;;;;23.52;9.93;;;7.40;99.90;;;;;;5109720;28;20054;-73
2022/11/18 02:47:56;;;;;;;19.50;8.82;;;7.30;99.90;;;;;;5093191;28;20056;-74
2022/11/18 02:50:24;;;;;;;22.55;9.77;;;7.30;99.90;;;;;;5089606;28;20043;-73
2022/11/18 02:52:58;;;;;;;24.45;9.80;;;7.30;99.90;;;;;;5077557;28;20043;-72
2022/11/18 02:55:27;;;;;;;24.05;9.82;;;7.30;99.90;;;;;;5109360;28;20054;-72
2022/11/18 02:57:53;;;;;;;25.98;10.68;;;7.40;99.90;;;;;;5097033;28;20557;-74
2022/11/18 03:00:19;;;;;;;23.67;9.63;;;7.30;99.90;;;;;;5090981;28;20538;-72
2022/11/18 03:02:47;;;;;;;25.95;10.80;;;7.30;99.90;;;;;;5091612;28;20090;-72
2022/11/18 03:05:29;;;;;;;24.88;10.77;;;7.30;99.90;;;;;;5090099;28;20105;-73
2022/11/18 03:08:02;;;;;;;19.20;9.65;;;7.30;99.90;;;;;;5090781;28;20058;-73
2022/11/18 03:10:42;;;;;;;22.15;10.77;;;7.40;99.90;;;;;;5109528;27;20055;-72
2022/11/18 03:13:19;;;;;;;26.20;9.95;;;7.50;99.90;;;;;;5111131;27;20291;-72
2022/11/18 03:15:59;;;;;;;25.42;10.00;;;7.30;99.90;;;;;;5133722;27;20059;-72
2022/11/18 03:18:56;;;;;;;26.00;11.10;;;7.30;99.90;;;;;;5097711;28;20138;-73
2022/11/18 03:21:42;;;;;;;23.80;9.87;;;7.30;99.90;;;;;;5096467;27;20032;-72
2022/11/18 03:24:31;;;;;;;28.48;10.15;;;7.30;99.90;;;;;;5114793;27;20066;-72
2022/11/18 03:27:11;;;;;;;21.20;9.07;;;7.30;99.90;;;;;;5114917;27;20576;-74
2022/11/18 03:29:43;;;;;;;24.30;9.98;;;7.30;99.90;;;;;;5115303;27;20574;-72
2022/11/18 03:32:17;;;;;;;23.58;9.57;;;7.30;99.90;;;;;;5111595;27;20043;-74
2022/11/18 03:34:47;;;;;;;24.38;10.38;;;7.30;99.90;;;;;;5113592;27;20039;-74
2022/11/18 03:37:15;;;;;;;24.30;10.70;;;7.30;99.90;;;;;;5109258;27;20035;-73
2022/11/18 03:39:45;;;;;;;22.77;10.55;;;7.50;99.90;;;;;;5094465;28;20497;-72
2022/11/18 03:42:31;;;;;;;24.40;10.68;;;7.30;99.90;;;;;;5111133;27;20094;-72
2022/11/18 03:45:04;;;;;;;23.48;10.25;;;7.30;99.90;;;;;;5114862;27;20100;-74
2022/11/18 03:47:38;;;;;;;24.55;9.57;;;7.30;99.90;;;;;;5103811;28;20043;-72
2022/11/18 03:50:12;;;;;;;24.58;11.93;;;7.30;99.90;;;;;;5093448;28;20454;-74
2022/11/18 03:52:39;;;;;;;23.30;10.65;;;7.30;99.90;;;;;;5093771;28;20077;-72
2022/11/18 03:55:11;;;;;;;23.95;10.95;;;7.30;99.90;;;;;;5093841;27;20384;-75
2022/11/18 03:57:58;;;;;;;21.42;9.70;;;7.30;99.90;;;;;;5099931;27;20047;-72
2022/11/18 04:00:28;;;;;;;24.88;11.38;;;7.40;99.90;;;;;;5114009;27;20520;-72
2022/11/18 04:02:54;;;;;;;25.73;11.07;;;7.30;99.90;;;;;;5113603;27;20039;-74
2022/11/18 04:05:20;;;;;;;25.45;10.77;;;7.40;99.90;;;;;;5111569;27;20116;-73
2022/11/18 04:07:54;;;;;;;24.73;9.90;;;7.30;99.90;;;;;;5113820;27;20104;-74
2022/11/18 04:10:30;;;;;;;23.10;9.88;;;7.30;99.90;;;;;;5104021;28;20047;-74
2022/11/18 04:13:17;;;;;;;25.80;10.13;;;7.20;99.90;;;;;;5112318;27;20138;-72
2022/11/18 04:15:43;;;;;;;24.10;11.25;;;7.20;99.90;;;;;;5110947;28;20055;-73
2022/11/18 04:18:09;;;;;;;24.25;9.82;;;7.20;99.90;;;;;;5076523;28;20090;-75
2022/11/18 04:20:36;;;;;;;24.92;10.98;;;7.20;99.90;;;;;;5113288;27;20100;-73
2022/11/18 04:23:03;;;;;;;21.45;9.85;;;7.20;99.90;;;;;;5130328;27;20098;-72
2022/11/18 04:25:29;;;;;;;29.50;11.00;;;7.30;99.90;;;;;;5110189;28;20100;-72
2022/11/18 04:27:54;;;;;;;25.92;9.73;;;7.20;99.90;;;;;;5098017;28;20047;-73
2022/11/18 04:30:20;;;;;;;28.95;10.27;;;7.30;99.90;;;;;;5075635;28;20051;-73
2022/11/18 04:32:46;;;;;;;27.30;11.48;;;7.20;99.90;;;;;;5099994;27;20087;-73
2022/11/18 04:35:12;;;;;;;;;;;7.30;99.90;;;;;;5093771;28;20047;-74
2022/11/18 04:37:37;;;;;;;21.63;8.50;;;7.20;99.90;;;;;;5100708;28;20394;-72
2022/11/18 04:40:04;;;;;;;26.42;9.90;;;7.20;99.90;;;;;;5096679;28;20039;-73
2022/11/18 04:42:30;;;;;;;23.00;9.43;;;7.30;99.90;;;;;;5093577;28;20079;-72
2022/11/18 04:44:55;;;;;;;20.98;9.43;;;7.20;99.90;;;;;;5092920;28;20094;-72
2022/11/18 04:47:21;;;;;;;21.77;9.00;;;7.30;99.90;;;;;;5093627;27;20100;-73
2022/11/18 04:49:47;;;;;;;23.00;9.98;;;7.20;99.90;;;;;;5091985;28;20483;-72
2022/11/18 04:52:13;;;;;;;18.65;9.10;;;7.20;99.90;;;;;;5092028;28;20104;-75
2022/11/18 04:54:39;;;;;;;;;;;7.20;99.90;;;;;;5093582;28;20120;-73
2022/11/18 04:57:04;;;;;;;20.52;9.52;;;7.20;99.90;;;;;;5093271;28;20352;-73
2022/11/18 04:59:30;;;;;;;22.15;9.15;;;7.20;99.90;;;;;;5092374;28;20104;-73
2022/11/18 05:01:58;;;;;;;19.50;8.13;;;7.20;99.90;;;;;;5092325;27;20047;-73
2022/11/18 05:04:27;;;;;;;20.42;8.90;;;7.10;99.90;;;;;;5100409;27;20043;-74
2022/11/18 05:06:53;;;;;;;22.65;9.15;;;7.10;99.90;;;;;;5112477;27;20082;-73
2022/11/18 05:09:18;;;;;;;20.67;8.88;;;7.10;99.90;;;;;;5096552;27;20043;-73
2022/11/18 05:14:29;;;;;;;28.42;10.30;;;7.20;99.90;;;;;;5091750;28;20043;-73
2022/11/18 05:16:56;;;;;;;;;;;7.10;99.90;;;;;;5097659;28;20051;-73
2022/11/18 05:19:22;;;;;;;22.37;9.60;;;7.20;99.90;;;;;;5091107;28;19931;-72
2022/11/18 05:21:48;;;;;;;31.55;10.40;;;7.10;99.90;;;;;;5091472;28;20059;-72
2022/11/18 05:24:14;;;;;;;22.25;9.68;;;7.10;99.90;;;;;;5110733;28;20052;-75
2022/11/18 05:26:39;;;;;;;23.70;9.68;;;7.10;99.90;;;;;;5075635;28;20143;-72
2022/11/18 05:29:05;;;;;;;22.75;9.40;;;7.00;99.90;;;;;;5108903;27;20086;-72
2022/11/18 05:31:31;;;;;;;22.80;10.32;;;7.00;99.90;;;;;;5093363;27;20116;-72
2022/11/18 05:33:57;;;;;;;21.75;9.90;;;7.00;99.90;;;;;;5109019;27;20055;-72
2022/11/18 05:36:23;;;;;;;24.73;10.32;;;7.00;99.90;;;;;;5095513;27;20054;-73
2022/11/18 05:38:48;;;;;;;23.75;9.30;;;7.00;99.90;;;;;;5112195;27;20046;-74
2022/11/18 05:43:09;;;;;;;20.13;8.80;;;7.00;99.90;;;;;;5088042;28;20126;-75
2022/11/18 05:44:01;;;;;;;22.02;10.27;;;7.10;99.90;;;;;;5091874;28;20101;-72
2022/11/18 05:46:27;;;;;;;25.13;10.25;;;7.10;99.90;;;;;;5092966;28;20134;-73
2022/11/18 05:48:53;;;;;;;25.35;10.30;;;7.00;99.90;;;;;;5091447;28;20552;-74
2022/11/18 05:51:19;;;;;;;21.90;9.20;;;7.00;99.90;;;;;;5091712;28;20126;-75
2022/11/18 05:53:46;;;;;;;23.65;9.65;;;7.00;99.90;;;;;;5074524;28;20035;-74
2022/11/18 05:56:28;;;;;;;25.38;9.85;;;7.00;99.90;;;;;;5099479;28;20044;-73
2022/11/18 05:58:55;;;;;;;22.25;9.02;;;7.00;99.90;;;;;;5112680;28;20549;-73
2022/11/18 06:01:23;;;;;;;;;;;7.00;99.90;;;;;;5106207;27;20062;-75
2022/11/18 06:03:49;;;;;;;24.55;9.77;;;7.00;99.90;;;;;;5097376;28;19924;-73
2022/11/18 06:06:19;;;;;;;23.60;8.98;;;7.10;99.90;;;;;;5086792;28;20040;-73
2022/11/18 06:08:57;;;;;;;23.23;10.02;;;7.00;99.90;;;;;;5102497;28;20047;-74
2022/11/18 06:11:23;;;;;;;22.65;9.23;;;7.10;99.90;;;;;;5103416;28;20123;-73
2022/11/18 06:14:01;;;;;;;19.95;9.20;;;7.00;99.90;;;;;;5091810;28;20386;-73
2022/11/18 06:16:28;;;;;;;20.52;8.95;;;7.00;99.90;;;;;;5091531;28;20485;-73
2022/11/18 06:18:54;;;;;;;24.40;8.88;;;7.00;99.90;;;;;;5093771;28;20093;-75
2022/11/18 06:21:20;;;;;;;20.90;10.23;;;7.00;99.90;;;;;;5078989;28;20496;-74
2022/11/18 06:23:46;;;;;;;23.15;9.15;;;7.00;99.90;;;;;;5090370;28;20043;-73
2022/11/18 06:26:14;;;;;;;25.48;8.30;;;7.00;99.90;;;;;;5091616;28;20047;-72
2022/11/18 06:28:42;;;;;;;22.63;9.10;;;7.00;99.90;;;;;;5074374;28;20040;-73
2022/11/18 06:31:08;;;;;;;25.25;9.48;;;7.00;99.90;;;;;;5091549;28;20048;-72
2022/11/18 06:33:33;;;;;;;22.48;8.60;;;7.00;99.90;;;;;;5075794;28;20104;-72
2022/11/18 06:35:59;;;;;;;25.83;10.00;;;7.00;99.90;;;;;;5090651;28;20079;-72
2022/11/18 06:38:25;;;;;;;23.50;8.82;;;7.00;99.90;;;;;;5095124;28;20138;-75
2022/11/18 06:40:51;;;;;;;19.35;7.30;;;6.90;99.90;;;;;;5095872;28;20074;-73
2022/11/18 06:48:47;;;;;;;18.35;7.70;;;6.90;99.90;;;;;;5097078;27;20051;-74
2022/11/18 06:51:13;;;;;;;17.70;7.13;;;6.90;99.90;;;;;;5105226;28;20043;-73
2022/11/18 06:53:39;;;;;;;19.15;8.15;;;6.90;99.90;;;;;;5093545;27;20036;-73
2022/11/18 06:56:13;;;;;;;20.08;8.27;;;6.90;99.90;;;;;;5099258;28;20473;-72
2022/11/18 06:58:39;;;;;;;18.23;7.53;;;6.90;99.90;;;;;;5100513;28;20487;-73
2022/11/18 07:01:13;;;;;;;19.48;7.78;;;6.90;99.90;;;;;;5113321;28;20089;-73
2022/11/18 07:03:40;;;;;;;23.08;8.27;;;6.90;99.90;;;;;;5077945;27;20051;-72
2022/11/18 07:06:07;;;;;;;20.50;7.60;;;6.90;99.90;;;;;;5111876;27;20062;-74
2022/11/18 07:08:37;;;;;;;19.05;8.18;;;6.90;99.90;;;;;;5114382;27;20059;-72
2022/11/18 07:11:04;;;;;;;21.67;6.90;;;6.90;99.90;;;;;;5095346;28;20050;-74
2022/11/18 07:13:31;;;;;;;17.88;6.78;;;6.90;99.90;;;;;;5101555;27;20416;-73
2022/11/18 07:16:05;;;;;;;15.48;7.63;;;6.90;99.90;;;;;;5107512;27;20132;-73
2022/11/18 07:18:36;;;;;;;19.27;7.53;;;6.90;99.90;;;;;;5114570;27;20047;-73
2022/11/18 07:21:20;;;;;;;17.33;6.45;;;6.90;99.90;;;;;;5114550;27;20054;-73
2022/11/18 07:23:46;;;;;;;19.83;7.35;;;6.90;99.90;;;;;;5128387;27;20040;-76
2022/11/18 07:26:12;;;;;;;18.35;7.18;;;6.90;99.90;;;;;;5094745;28;20450;-73
2022/11/18 07:28:38;;;;;;;20.77;7.65;;;6.90;99.90;;;;;;5077538;28;20065;-74
2022/11/18 07:31:09;;;;;;;21.13;7.82;;;6.90;99.90;;;;;;5102287;28;20043;-74
2022/11/18 07:33:36;;;;;;;20.52;7.85;;;6.80;99.90;;;;;;5101246;27;20047;-72
2022/11/18 07:36:09;;;;;;;22.33;7.35;;;6.80;99.90;;;;;;5119544;27;20126;-74
2022/11/18 07:38:35;;;;;;;21.10;7.72;;;6.80;99.90;;;;;;5098909;28;20048;-73
2022/11/18 07:41:06;;;;;;;18.05;6.72;;;6.80;99.90;;;;;;5101216;27;20063;-73
2022/11/18 07:43:33;;;;;;;17.63;7.57;;;6.80;99.90;;;;;;5109208;28;20494;-75
2022/11/18 07:46:26;;;;;;;17.63;7.15;;;6.80;99.90;;;;;;5122249;27;20047;-73
2022/11/18 07:48:54;;;;;;;17.23;7.30;;;6.90;99.90;;;;;;5091095;28;20526;-78
2022/11/18 07:51:23;;;;;;;19.10;7.25;;;6.90;99.90;;;;;;5104441;27;20129;-74
2022/11/18 07:53:49;;;;;;;17.45;7.38;;;6.90;99.90;;;;;;5104547;27;20488;-73
2022/11/18 07:56:15;;;;;;;18.90;7.47;;;6.90;99.90;;;;;;5095099;27;20074;-75
2022/11/18 07:58:42;;;;;;;17.85;6.72;;;6.90;99.90;;;;;;5103304;28;20082;-74
2022/11/18 08:01:16;;;;;;;14.52;6.80;;;6.80;99.90;;;;;;5099483;27;20508;-73
2022/11/18 08:03:43;;;;;;;18.13;7.63;;;6.80;99.90;;;;;;5104639;27;20177;-76
2022/11/18 08:06:10;;;;;;;19.15;7.53;;;6.80;99.90;;;;;;5121413;27;20123;-74
2022/11/18 08:08:36;;;;;;;18.27;7.68;;;6.80;99.90;;;;;;5099226;27;20055;-74
2022/11/18 08:11:04;;;;;;;;;;;6.80;99.90;;;;;;5078924;27;20051;-78
2022/11/18 08:13:31;;;;;;;17.25;7.18;;;6.80;99.90;;;;;;5120964;27;20026;-78
2022/11/18 08:15:56;;;;;;;;;;;6.80;99.90;;;;;;5100384;27;20062;-75
2022/11/18 08:18:22;;;;;;;15.07;6.32;;;6.80;99.90;;;;;;5097369;27;19923;-76
2022/11/18 08:20:48;;;;;;;16.38;6.35;;;6.80;99.90;;;;;;5122672;27;20631;-74
2022/11/18 08:23:14;;;;;;;16.45;5.70;;;6.80;99.90;;;;;;5120457;27;20500;-77
2022/11/18 08:25:42;;;;;;;18.75;6.72;;;6.80;99.90;;;;;;5117165;27;20133;-74
2022/11/18 08:28:07;;;;;;;16.10;6.07;;;6.80;99.90;;;;;;5124747;27;20050;-74
2022/11/18 08:30:34;;;;;;;16.38;6.53;;;6.70;99.90;;;;;;5123921;27;20392;-79
2022/11/18 08:33:00;;;;;;;15.93;5.70;;;6.80;99.90;;;;;;5107336;27;20062;-75
2022/11/18 08:35:27;;;;;;;14.52;6.18;;;6.80;99.90;;;;;;5111804;27;20039;-77
2022/11/18 08:37:54;;;;;;;18.20;7.00;;;6.80;99.90;;;;;;5083246;28;20044;-72
2022/11/18 08:40:20;;;;;;;20.75;6.78;;;6.80;99.90;;;;;;5097550;27;20051;-73
2022/11/18 08:42:46;;;;;;;16.17;6.32;;;6.80;99.90;;;;;;5106015;27;20787;-75
2022/11/18 08:45:11;;;;;;;15.30;7.00;;;6.90;99.90;;;;;;5108620;27;20077;-73
2022/11/18 08:47:38;;;;;;;18.52;6.32;;;6.80;99.90;;;;;;5090259;28;20504;-74
2022/11/18 08:50:06;;;;;;;17.73;7.13;;;6.80;99.90;;;;;;5103162;28;20047;-73
2022/11/18 08:52:32;;;;;;;18.60;6.60;;;6.80;99.90;;;;;;5111438;27;20077;-77
2022/11/18 08:54:58;;;;;;;17.67;6.65;;;6.90;99.90;;;;;;5113953;27;20047;-73
2022/11/18 08:57:23;;;;;;;16.48;6.45;;;6.80;99.90;;;;;;5101744;27;20537;-75
2022/11/18 08:59:49;;;;;;;15.73;5.65;;;6.80;99.90;;;;;;5112194;27;20489;-74
2022/11/18 09:02:18;;;;;;;16.10;5.90;;;6.80;99.90;;;;;;5102156;27;20475;-75
2022/11/18 09:04:46;;;;;;;14.00;5.30;;;6.80;99.90;;;;;;5094530;27;20055;-75
2022/11/18 09:07:12;;;;;;;15.55;5.60;;;6.80;99.90;;;;;;5098710;27;20038;-74
2022/11/18 09:09:38;;;;;;;12.45;5.10;;;6.80;99.90;;;;;;5114017;27;20408;-78
2022/11/18 09:12:04;;;;;;;12.32;5.18;;;6.80;99.90;;;;;;5115821;27;20043;-74
2022/11/18 09:14:30;;;;;;;13.55;5.10;;;6.80;99.90;;;;;;5098477;27;20042;-74
2022/11/18 09:16:56;;;;;;;16.55;5.95;;;6.80;99.90;;;;;;5116706;27;20044;-77
2022/11/18 09:19:21;;;;;;;13.77;5.82;;;6.80;99.90;;;;;;5096802;28;20054;-75
2022/11/18 09:21:47;;;;;;;17.67;5.93;;;6.90;99.90;;;;;;5103460;27;20349;-76
2022/11/18 09:24:13;;;;;;;15.52;5.70;;;6.90;99.90;;;;;;5097105;27;20528;-78
2022/11/18 09:26:39;;;;;;;14.60;5.60;;;6.90;99.90;;;;;;5112201;27;20066;-78
2022/11/18 09:29:05;;;;;;;16.85;5.85;;;6.90;99.90;;;;;;5081960;28;20278;-75
2022/11/18 09:31:31;;;;;;;12.63;5.53;;;6.90;99.90;;;;;;5101138;27;20046;-73
2022/11/18 09:34:00;;;;;;;12.15;5.38;;;6.90;99.90;;;;;;5081793;28;20043;-74
2022/11/18 09:36:26;;;;;;;12.55;5.40;;;6.90;99.90;;;;;;5099404;27;20043;-74
2022/11/18 09:38:52;;;;;;;;;;;6.90;99.90;;;;;;5071255;27;20058;-74
2022/11/18 09:41:22;;;;;;;11.25;5.00;;;6.90;99.90;;;;;;5117287;27;19956;-77
2022/11/18 09:44:11;;;;;;;14.10;5.70;;;7.00;99.90;;;;;;5117086;27;20114;-72
2022/11/18 09:47:04;;;;;;;13.48;5.50;;;6.90;99.90;;;;;;5109348;27;20122;-78
2022/11/18 09:49:36;;;;;;;13.60;6.47;;;6.90;99.90;;;;;;5110672;27;20047;-75
2022/11/18 09:52:09;;;;;;;16.67;5.55;;;6.90;99.90;;;;;;5107781;27;20055;-76
2022/11/18 09:54:36;;;;;;;11.68;4.93;;;6.90;99.90;;;;;;5120104;27;20046;-74
2022/11/18 09:57:08;;;;;;;13.02;5.55;;;6.90;99.90;;;;;;5100432;28;20039;-76
2022/11/18 09:59:34;;;;;;;13.95;5.65;;;6.90;99.90;;;;;;5095211;28;20039;-76
2022/11/18 10:02:26;;;;;;;14.55;6.40;;;6.90;99.90;;;;;;5097001;28;20893;-74
2022/11/18 10:04:56;;;;;;;13.15;5.43;;;6.80;99.90;;;;;;5089633;28;20373;-75
2022/11/18 10:07:49;;;;;;;13.85;5.30;;;6.80;99.90;;;;;;5093755;28;20414;-73
2022/11/18 10:10:21;;;;;;;14.75;5.93;;;6.70;99.90;;;;;;5083386;28;20082;-77
2022/11/18 10:13:05;;;;;;;15.77;5.88;;;6.70;99.90;;;;;;5096921;28;20048;-74
2022/11/18 10:15:52;;;;;;;14.55;6.28;;;6.70;99.90;;;;;;5090909;28;20087;-75
2022/11/18 10:18:50;;;;;;;13.73;5.60;;;6.70;99.90;;;;;;5085097;28;20046;-73
2022/11/18 10:21:28;;;;;;;13.52;5.70;;;6.70;99.90;;;;;;5092157;28;20779;-74
2022/11/18 10:24:01;;;;;;;12.65;6.13;;;6.70;99.90;;;;;;5093777;28;20071;-75
2022/11/18 10:26:39;;;;;;;15.55;6.38;;;6.70;99.90;;;;;;5112652;27;20047;-75
2022/11/18 10:29:08;;;;;;;17.70;7.00;;;6.70;99.90;;;;;;5120414;27;20104;-73
2022/11/18 10:31:55;;;;;;;16.50;7.13;;;6.70;99.90;;;;;;5113275;27;20588;-75
2022/11/18 10:34:21;;;;;;;14.32;6.28;;;6.80;99.90;;;;;;5106889;27;20480;-73
2022/11/18 10:37:06;;;;;;;14.88;6.47;;;6.80;99.90;;;;;;5090604;27;20096;-74
2022/11/18 10:39:31;;;;;;;13.52;5.53;;;6.80;99.90;;;;;;5103629;28;20055;-74
2022/11/18 12:05:41;;;;;;;14.30;6.13;;;6.10;99.90;;;;;;5125858;27;21193;-74
2022/11/18 12:08:10;;;;;;;15.75;6.32;;;6.10;99.90;;;;;;5121898;28;20047;-74
2022/11/18 12:11:14;;;;;;;15.55;6.05;;;6.10;99.90;;;;;;5106509;28;20051;-75
2022/11/18 12:13:59;;;;;;;14.27;6.05;;;6.10;99.90;;;;;;5003903;28;20058;-74
2022/11/18 12:16:27;;;;;;;17.45;6.47;;;6.10;99.90;;;;;;5112443;28;20059;-77
2022/11/18 12:19:15;;;;;;;17.38;7.00;;;6.10;99.90;;;;;;5104423;28;20058;-79
2022/11/18 12:21:46;;;;;;;17.73;6.60;;;6.20;99.90;;;;;;5102438;28;20055;-73
2022/11/18 12:24:33;;;;;;;20.83;7.00;;;6.20;99.90;;;;;;5121397;28;20081;-73
2022/11/18 12:27:03;;;;;;;19.17;7.07;;;6.20;99.90;;;;;;5122707;28;20134;-74
2022/11/18 12:29:47;;;;;;;15.75;6.57;;;6.20;99.90;;;;;;5105550;28;20787;-73
2022/11/18 12:32:34;;;;;;;18.52;7.53;;;6.20;99.90;;;;;;5103109;28;20045;-73
2022/11/18 12:35:21;;;;;;;17.58;6.63;;;6.10;99.90;;;;;;5121914;28;20085;-74
2022/11/18 12:37:50;;;;;;;16.05;6.65;;;6.10;99.90;;;;;;5121250;28;20750;-74
2022/11/18 12:40:39;;;;;;;15.88;6.18;;;6.30;99.90;;;;;;5123050;28;20039;-74
2022/11/18 12:46:33;;;;;;;19.27;7.15;;;6.10;99.90;;;;;;5068966;28;20048;-76
2022/11/18 12:49:21;;;;;;;17.95;7.75;;;6.10;99.90;;;;;;5053893;28;20059;-78
2022/11/18 12:51:49;;;;;;;17.35;6.93;;;6.00;99.90;;;;;;5122533;28;20051;-77
2022/11/18 12:54:20;;;;;;;20.05;7.32;;;6.00;99.90;;;;;;5121642;28;20069;-73
2022/11/18 12:56:48;;;;;;;18.75;6.22;;;6.00;99.90;;;;;;5124680;28;20046;-75
2022/11/18 12:59:14;;;;;;;18.42;7.18;;;6.00;99.90;;;;;;5084253;28;20541;-72
2022/11/18 13:01:39;;;;;;;14.73;6.13;;;6.00;99.90;;;;;;5088986;28;20079;-73
2022/11/18 13:04:15;;;;;;;14.38;6.90;;;5.90;99.90;;;;;;5097340;28;20155;-72
2022/11/18 13:06:42;;;;;;;18.07;6.63;;;5.90;99.90;;;;;;5103567;28;20136;-75
2022/11/18 13:09:18;;;;;;;15.15;5.72;;;6.00;99.90;;;;;;5120172;28;20377;-74
2022/11/18 13:12:16;;;;;;;17.15;5.97;;;5.90;99.90;;;;;;5117118;28;20079;-73
2022/11/18 13:20:41;;;;;;;14.75;5.22;;;6.00;99.90;;;;;;5087200;28;20058;-71
2022/11/18 13:26:13;;;;;;;11.30;5.22;;;5.90;99.90;;;;;;5105992;28;20512;-70
2022/11/18 13:28:46;;;;;;;11.70;5.22;;;5.80;99.90;;;;;;5111667;28;20392;-72
2022/11/18 13:31:34;;;;;;;12.48;5.30;;;5.80;99.90;;;;;;5090061;28;20059;-71
2022/11/18 13:34:20;;;;;;;13.68;5.38;;;5.80;99.90;;;;;;5085502;28;20052;-74
2022/11/18 13:36:48;;;;;;;15.10;5.72;;;5.80;99.90;;;;;;5082890;28;20614;-72
2022/11/18 13:39:31;;;;;;;17.55;6.30;;;5.70;99.90;;;;;;5106683;28;20059;-71
2022/11/18 13:42:02;;;;;;;14.30;6.00;;;5.70;99.90;;;;;;5098763;28;20481;-74
2022/11/18 13:44:34;;;;;;;17.65;6.85;;;5.70;99.90;;;;;;5066427;28;20044;-71
2022/11/18 13:47:10;;;;;;;13.60;5.50;;;5.60;99.90;;;;;;5072321;28;20560;-74
2022/11/18 13:49:45;;;;;;;16.70;6.23;;;5.60;99.90;;;;;;5091846;28;20126;-71
2022/11/18 13:52:22;;;;;;;16.35;5.30;;;5.50;99.90;;;;;;5071508;28;20290;-70
2022/11/18 13:54:51;;;;;;;17.88;6.28;;;5.60;99.90;;;;;;5089700;28;20097;-71
2022/11/18 13:57:19;;;;;;;17.92;6.40;;;5.40;99.90;;;;;;5081387;28;20489;-71
2022/11/18 13:59:47;;;;;;;17.00;6.38;;;5.40;99.90;;;;;;5073634;28;20051;-72
2022/11/18 14:02:14;;;;;;;17.27;6.35;;;5.40;99.90;;;;;;5089475;28;20472;-72
2022/11/18 14:04:53;;;;;;;14.25;6.35;;;5.30;99.90;;;;;;5088922;28;20060;-71
2022/11/18 14:08:00;;;;;;;15.38;6.13;;;5.30;99.90;;;;;;5085950;28;20039;-73
2022/11/18 14:10:31;;;;;;;16.33;5.82;;;5.30;99.90;;;;;;5052851;28;20052;-73
2022/11/18 14:12:59;;;;;;;14.23;5.45;;;5.20;99.90;;;;;;5085509;28;20057;-71
2022/11/18 14:15:30;;;;;;;17.90;6.72;;;5.30;99.90;;;;;;5085352;28;20086;-71
2022/11/18 14:17:58;;;;;;;18.17;6.93;;;5.10;99.90;;;;;;5077959;28;20036;-73
2022/11/18 14:20:26;;;;;;;19.00;6.65;;;5.00;99.90;;;;;;5079362;28;20405;-76
2022/11/18 14:23:04;;;;;;;16.98;6.60;;;4.90;99.90;;;;;;5103863;28;20044;-73
2022/11/18 14:25:34;;;;;;;14.32;6.93;;;4.80;99.90;;;;;;5101500;28;20059;-71
2022/11/18 14:28:39;;;;;;;19.67;7.13;;;4.80;99.90;;;;;;5104853;28;20100;-76
2022/11/18 14:31:11;;;;;;;20.02;8.40;;;4.80;99.90;;;;;;5074592;28;20427;-72
2022/11/18 14:33:37;;;;;;;16.33;7.22;;;4.80;99.90;;;;;;5073799;28;20438;-72
2022/11/18 14:36:16;;;;;;;;;;;4.70;99.90;;;;;;5098369;28;20047;-75
2022/11/18 14:38:46;;;;;;;15.00;5.93;;;4.70;99.90;;;;;;5057430;28;19985;-73
2022/11/18 14:41:14;;;;;;;18.13;5.97;;;4.70;99.90;;;;;;5077307;28;20040;-73
2022/11/18 14:43:41;;;;;;;16.60;7.13;;;4.70;99.90;;;;;;5078857;28;20476;-73
2022/11/18 14:46:15;;;;;;;16.40;6.53;;;4.70;99.90;;;;;;5083570;28;20044;-77
2022/11/18 14:48:41;;;;;;;16.10;6.35;;;5.10;99.90;;;;;;5101717;28;20123;-75
2022/11/18 14:51:12;;;;;;;14.90;6.35;;;4.60;99.90;;;;;;5070702;28;20126;-76
2022/11/18 14:53:38;;;;;;;14.98;6.57;;;4.60;99.90;;;;;;5091431;28;20054;-72